Pulau Tioman — 3EYO9 — position and weather

sailwx.info

Track history (hours):
 
Tides and Currents Weather Stations Pressure Air Temp Water Temp Dewpoint Dewpoint Depression Visibility Wind Speed Wind Dir Waves Ship Positions

Pulau Tioman

Last reported at 2014-Aug-13 15:12 UTC. Time now 2014-Aug-21 04:23 UTC.
Position N 35°55' E 141°02'.

Length 120 m; draft 5.9 m.

Type: Cargo ship. MMSI: 356613000.

Date/timePositionNaut miles runAvg speedWind from/ knotsBaromVisibWave heightAir tempDewpointWater temp
2014-Aug-13 15:12N 35°55' E 141°02'914.2
2014-Aug-13 14:33N 35°46' E 141°01'1613.8
2014-Aug-13 13:25N 35°32' E 140°52'1415.2
2014-Aug-13 12:30N 35°20' E 140°42'3216.0
2014-Aug-13 10:31N 34°59' E 140°14'1414.8
2014-Aug-13 09:33N 34°51' E 139°59'1312.6
2014-Aug-13 08:33N 34°54' E 139°44'1313.5
2014-Aug-13 07:33N 35°08' E 139°45'1212.0
2014-Aug-13 06:33N 35°20' E 139°43'8 7.3
2014-Aug-13 05:31N 35°27' E 139°41'0 0.0
2014-Aug-13 04:31N 35°27' E 139°41'0 0.0
2014-Aug-13 03:31N 35°27' E 139°41'0 0.0
2014-Aug-13 02:31N 35°27' E 139°41'0 0.0
2014-Aug-13 01:31N 35°27' E 139°41'0 0.0
2014-Aug-13 00:31N 35°27' E 139°41'0 0.0
2014-Aug-12 23:31N 35°27' E 139°41'0 0.0
2014-Aug-12 22:32N 35°27' E 139°41'4 4.3
2014-Aug-12 21:33N 35°23' E 139°43'1110.7
2014-Aug-12 20:33N 35°13' E 139°47'1313.1
2014-Aug-12 19:33N 35°02' E 139°39'1413.9
2014-Aug-12 18:33N 34°54' E 139°25'226 6.5
2014-Aug-11 07:33N 34°02' E 134°58'1414.2
2014-Aug-11 06:33N 34°16' E 134°58'1414.5
2014-Aug-11 05:33N 34°30' E 135°02'1312.5
2014-Aug-11 04:32N 34°38' E 134°50'5 4.7
2014-Aug-11 03:31N 34°43' E 134°51'0 0.0
2014-Aug-11 02:31N 34°43' E 134°51'0 0.0
2014-Aug-11 01:25N 34°43' E 134°51'0 0.0
2014-Aug-11 00:31N 34°43' E 134°51'1 0.5
2014-Aug-10 23:32N 34°42' E 134°50'4 3.2
2014-Aug-10 22:21N 34°39' E 134°48'0 0.1
2014-Aug-10 20:27N 34°39' E 134°48'0 0.0
2014-Aug-10 17:33N 34°39' E 134°48'0 0.0
2014-Aug-10 16:27N 34°39' E 134°48'0 0.0
2014-Aug-10 15:21N 34°39' E 134°48'0 0.1
2014-Aug-10 14:27N 34°39' E 134°48'0 0.1
2014-Aug-10 13:21N 34°39' E 134°48'0 0.0
2014-Aug-10 12:33N 34°39' E 134°48'0 0.0
2014-Aug-10 08:27N 34°39' E 134°48'0 0.0
2014-Aug-10 07:27N 34°39' E 134°48'0 0.0
2014-Aug-10 06:33N 34°39' E 134°48'0 0.0
2014-Aug-10 05:09N 34°39' E 134°48'0 0.0
2014-Aug-10 04:21N 34°39' E 134°48'0 0.0
2014-Aug-10 03:33N 34°39' E 134°48'0 0.0
2014-Aug-09 19:14N 34°39' E 134°48'0 0.0
2014-Aug-09 01:13N 34°39' E 134°48'0 0.0
2014-Aug-08 21:31N 34°39' E 134°48'0 0.0
2014-Aug-08 15:31N 34°39' E 134°48'0 0.0
2014-Aug-08 12:25N 34°39' E 134°48'0 0.0
2014-Aug-08 11:19N 34°39' E 134°48'0 0.1
2014-Aug-08 08:26N 34°39' E 134°48'1213.7
2014-Aug-08 07:34N 34°37' E 135°02'1111.3
2014-Aug-08 06:33N 34°39' E 135°16'3 2.4
2014-Aug-08 05:30N 34°41' E 135°15'0 0.0
2014-Aug-08 04:18N 34°41' E 135°15'0 0.0
2014-Aug-08 03:30N 34°41' E 135°15'0 0.0
2014-Aug-08 02:30N 34°41' E 135°15'0 0.0
2014-Aug-08 01:24N 34°41' E 135°15'0 0.1
2014-Aug-08 00:33N 34°41' E 135°15'6 6.3
2014-Aug-07 23:33N 34°35' E 135°17'3 3.2
2014-Aug-07 22:33N 34°32' E 135°17'9 8.5
2014-Aug-07 21:33N 34°28' E 135°07'1111.2
2014-Aug-07 20:33N 34°37' E 134°58'1512.5
2014-Aug-07 19:23N 34°31' E 134°42'  
Track history (hours):
 
Tides and Currents Weather Stations Pressure Air Temp Water Temp Dewpoint Dewpoint Depression Visibility Wind Speed Wind Dir Waves Ship Positions

Pulau Tioman

Last reported at 2014-Aug-13 15:12 UTC. Time now 2014-Aug-21 04:23 UTC.
Position N 35°55' E 141°02'.

Length 120 m; draft 5.9 m.

Type: Cargo ship. MMSI: 356613000.

Date/timePositionNaut miles runAvg speedWind from/ knotsBaromVisibWave heightAir tempDewpointWater temp
2014-Aug-13 15:12N 35°55' E 141°02'914.2
2014-Aug-13 14:33N 35°46' E 141°01'1613.8
2014-Aug-13 13:25N 35°32' E 140°52'1415.2
2014-Aug-13 12:30N 35°20' E 140°42'3216.0
2014-Aug-13 10:31N 34°59' E 140°14'1414.8
2014-Aug-13 09:33N 34°51' E 139°59'1312.6
2014-Aug-13 08:33N 34°54' E 139°44'1313.5
2014-Aug-13 07:33N 35°08' E 139°45'1212.0
2014-Aug-13 06:33N 35°20' E 139°43'8 7.3
2014-Aug-13 05:31N 35°27' E 139°41'0 0.0
2014-Aug-13 04:31N 35°27' E 139°41'0 0.0
2014-Aug-13 03:31N 35°27' E 139°41'0 0.0
2014-Aug-13 02:31N 35°27' E 139°41'0 0.0
2014-Aug-13 01:31N 35°27' E 139°41'0 0.0
2014-Aug-13 00:31N 35°27' E 139°41'0 0.0
2014-Aug-12 23:31N 35°27' E 139°41'0 0.0
2014-Aug-12 22:32N 35°27' E 139°41'4 4.3
2014-Aug-12 21:33N 35°23' E 139°43'1110.7
2014-Aug-12 20:33N 35°13' E 139°47'1313.1
2014-Aug-12 19:33N 35°02' E 139°39'1413.9
2014-Aug-12 18:33N 34°54' E 139°25'226 6.5
2014-Aug-11 07:33N 34°02' E 134°58'1414.2
2014-Aug-11 06:33N 34°16' E 134°58'1414.5
2014-Aug-11 05:33N 34°30' E 135°02'1312.5
2014-Aug-11 04:32N 34°38' E 134°50'5 4.7
2014-Aug-11 03:31N 34°43' E 134°51'0 0.0
2014-Aug-11 02:31N 34°43' E 134°51'0 0.0
2014-Aug-11 01:25N 34°43' E 134°51'0 0.0
2014-Aug-11 00:31N 34°43' E 134°51'1 0.5
2014-Aug-10 23:32N 34°42' E 134°50'4 3.2
2014-Aug-10 22:21N 34°39' E 134°48'0 0.1
2014-Aug-10 20:27N 34°39' E 134°48'0 0.0
2014-Aug-10 17:33N 34°39' E 134°48'0 0.0
2014-Aug-10 16:27N 34°39' E 134°48'0 0.0
2014-Aug-10 15:21N 34°39' E 134°48'0 0.1
2014-Aug-10 14:27N 34°39' E 134°48'0 0.1
2014-Aug-10 13:21N 34°39' E 134°48'0 0.0
2014-Aug-10 12:33N 34°39' E 134°48'0 0.0
2014-Aug-10 08:27N 34°39' E 134°48'0 0.0
2014-Aug-10 07:27N 34°39' E 134°48'0 0.0
2014-Aug-10 06:33N 34°39' E 134°48'0 0.0
2014-Aug-10 05:09N 34°39' E 134°48'0 0.0
2014-Aug-10 04:21N 34°39' E 134°48'0 0.0
2014-Aug-10 03:33N 34°39' E 134°48'0 0.0
2014-Aug-09 19:14N 34°39' E 134°48'0 0.0
2014-Aug-09 01:13N 34°39' E 134°48'0 0.0
2014-Aug-08 21:31N 34°39' E 134°48'0 0.0
2014-Aug-08 15:31N 34°39' E 134°48'0 0.0
2014-Aug-08 12:25N 34°39' E 134°48'0 0.0
2014-Aug-08 11:19N 34°39' E 134°48'0 0.1
2014-Aug-08 08:26N 34°39' E 134°48'1213.7
2014-Aug-08 07:34N 34°37' E 135°02'1111.3
2014-Aug-08 06:33N 34°39' E 135°16'3 2.4
2014-Aug-08 05:30N 34°41' E 135°15'0 0.0
2014-Aug-08 04:18N 34°41' E 135°15'0 0.0
2014-Aug-08 03:30N 34°41' E 135°15'0 0.0
2014-Aug-08 02:30N 34°41' E 135°15'0 0.0
2014-Aug-08 01:24N 34°41' E 135°15'0 0.1
2014-Aug-08 00:33N 34°41' E 135°15'6 6.3
2014-Aug-07 23:33N 34°35' E 135°17'3 3.2
2014-Aug-07 22:33N 34°32' E 135°17'9 8.5
2014-Aug-07 21:33N 34°28' E 135°07'1111.2
2014-Aug-07 20:33N 34°37' E 134°58'1512.5
2014-Aug-07 19:23N 34°31' E 134°42'  

Dump ship's entire track history